Euskara    
Meteorología y climatología de Navarra
Datos de la estación - Meteo Navarra

Estación de Aguilar de Codés GN

Altitud 736 m.


Datos desde el 22/11/2020 hasta el 23/11/2020 en horario solar
Los datos son PROVISIONALES

Anterior Página 1 de 1 Siguiente Descargar: Formato para Excel 2000 o superior   Formato csv   Formato para OpenOffice Calc
Fecha Temperatura Humedad relativa Radiación global Insolación Precipitación Vel. viento 10 m Vel. viento 10 m Dir. viento 10 m
°C % W/m² s l/m² m/s km/h °
22/11/2020 0:00 3.3 67 0.0 0 0.0 0.6 2.0 66
22/11/2020 0:10 3.3 67 0.0 0 0.0 0.8 3.0 77
22/11/2020 0:20 3.2 67 0.0 0 0.0 0.5 1.9 69
22/11/2020 0:30 3.6 65 0.0 0 0.0 1.7 6.0 103
22/11/2020 0:40 3.6 65 0.0 0 0.0 1.0 3.5 101
22/11/2020 0:50 3.3 65 0.0 0 0.0 0.9 3.2 355
22/11/2020 1:00 3.3 66 0.0 0 0.0 0.9 3.1 341
22/11/2020 1:10 3.3 66 0.0 0 0.0 0.8 2.9 326
22/11/2020 1:20 3.4 65 0.0 0 0.0 1.0 3.7 114
22/11/2020 1:30 3.7 64 0.0 0 0.0 1.7 6.2 117
22/11/2020 1:40 3.5 65 0.0 0 0.0 0.8 3.0 104
22/11/2020 1:50 3.8 64 0.0 0 0.0 1.6 5.8 129
22/11/2020 2:00 3.7 64 0.0 0 0.0 0.9 3.2 97
22/11/2020 2:10 3.2 67 0.0 0 0.0 0.6 2.2 88
22/11/2020 2:20 3.2 66 0.0 0 0.0 0.9 3.3 104
22/11/2020 2:30 3.2 66 0.0 0 0.0 0.5 1.9 82
22/11/2020 2:40 3.0 67 0.0 0 0.0 0.6 2.3 346
22/11/2020 2:50 2.8 68 0.0 0 0.0 1.4 5.0 318
22/11/2020 3:00 2.8 68 0.0 0 0.0 1.7 6.0 319
22/11/2020 3:10 2.9 68 0.0 0 0.0 1.5 5.5 321
22/11/2020 3:20 2.7 69 0.0 0 0.0 0.7 2.6 17
22/11/2020 3:30 2.2 71 0.0 0 0.0 0.7 2.6 33
22/11/2020 3:40 1.9 73 0.0 0 0.0 1.5 5.4 326
22/11/2020 3:50 2.4 71 0.0 0 0.0 0.9 3.4 346
22/11/2020 4:00 3.0 69 0.0 0 0.0 0.8 2.9 58
22/11/2020 4:10 3.0 67 0.0 0 0.0 0.6 2.0 41
22/11/2020 4:20 3.0 67 0.0 0 0.0 0.6 2.2 70
22/11/2020 4:30 3.1 66 0.0 0 0.0 0.6 2.1 313
22/11/2020 4:40 3.1 66 0.0 0 0.0 0.4 1.3 339
22/11/2020 4:50 2.7 67 0.0 0 0.0 0.7 2.3 4
22/11/2020 5:00 2.4 69 0.0 0 0.0 1.3 4.8 335
22/11/2020 5:10 2.6 67 0.0 0 0.0 1.1 4.1 323
22/11/2020 5:20 2.6 68 0.0 0 0.0 1.8 6.4 321
22/11/2020 5:30 2.3 69 0.0 0 0.0 1.5 5.4 323
22/11/2020 5:40 2.4 68 0.0 0 0.0 1.5 5.3 316
22/11/2020 5:50 2.4 68 0.0 0 0.0 1.6 5.8 315
22/11/2020 6:00 2.6 67 0.0 0 0.0 1.3 4.6 314
22/11/2020 6:10 2.4 68 0.0 0 0.0 1.0 3.7 317
22/11/2020 6:20 2.0 70 0.0 0 0.0 1.1 3.9 311
22/11/2020 6:30 2.1 70 0.0 0 0.0 1.2 4.3 311
22/11/2020 6:40 2.0 70 0.0 0 0.0 1.3 4.5 314
22/11/2020 6:50 1.8 72 0.0 0 0.0 0.9 3.4 297
22/11/2020 7:00 1.8 72 0.0 0 0.0 1.1 3.9 309
22/11/2020 7:10 2.0 72 0.0 0 0.0 1.4 5.0 310
22/11/2020 7:20 2.0 71 0.0 0 0.0 1.1 4.0 309
22/11/2020 7:30 2.0 72 13.0 16 0.0 1.5 5.5 314
22/11/2020 7:40 2.0 72 44.0 600 0.0 1.6 5.6 320
22/11/2020 7:50 2.5 72 66.9 600 0.0 0.9 3.3 308
22/11/2020 8:00 3.1 70 89.6 600 0.0 0.5 1.9 239
22/11/2020 8:10 4.1 66 114.0 600 0.0 0.6 2.0 231
22/11/2020 8:20 4.1 65 137.9 600 0.0 0.1 0.4 249
22/11/2020 8:30 3.6 68 163.3 600 0.0 0.9 3.3 331
22/11/2020 8:40 3.9 69 189.7 600 0.0 0.7 2.4 344
22/11/2020 8:50 4.9 64 214.4 600 0.0 0.1 0.4 237
22/11/2020 9:00 5.3 60 238.1 600 0.0 0.0 0.1 5
22/11/2020 9:10 5.6 59 260.5 600 0.0 0.4 1.4 199
22/11/2020 9:20 6.3 59 283.6 600 0.0 0.4 1.3 197
22/11/2020 9:30 6.2 58 306.0 600 0.0 0.4 1.4 189
22/11/2020 9:40 6.3 58 327.3 600 0.0 0.2 0.6 348
22/11/2020 9:50 7.0 57 347.2 600 0.0 0.4 1.6 127
22/11/2020 10:00 8.3 53 367.1 600 0.0 0.5 1.6 145
22/11/2020 10:10 8.8 51 385.3 600 0.0 0.8 2.7 148
22/11/2020 10:20 9.3 49 403.5 600 0.0 1.1 4.0 149
22/11/2020 10:30 9.3 49 419.8 600 0.0 1.1 3.9 125
22/11/2020 10:40 9.5 48 433.2 600 0.0 1.0 3.5 141
22/11/2020 10:50 9.7 49 444.8 600 0.0 1.2 4.4 149
22/11/2020 11:00 10.1 47 456.0 600 0.0 0.7 2.6 141
22/11/2020 11:10 10.4 47 466.0 600 0.0 0.7 2.4 146
22/11/2020 11:20 10.7 46 473.6 600 0.0 0.5 1.9 131
22/11/2020 11:30 10.7 47 479.7 600 0.0 0.3 1.0 158
22/11/2020 11:40 10.9 47 483.2 600 0.0 0.7 2.6 160
22/11/2020 11:50 11.1 48 487.2 600 0.0 1.3 4.5 184
22/11/2020 12:00 11.4 49 487.7 600 0.0 1.4 5.1 187
22/11/2020 12:10 11.7 48 454.8 600 0.0 1.4 5.0 157
22/11/2020 12:20 11.5 50 469.9 600 0.0 1.7 6.1 142
22/11/2020 12:30 11.6 50 462.1 600 0.0 1.6 5.7 146
22/11/2020 12:40 11.9 50 458.4 600 0.0 2.0 7.3 132
22/11/2020 12:50 11.8 51 443.4 600 0.0 1.8 6.6 136
22/11/2020 13:00 11.7 52 441.9 600 0.0 1.8 6.4 122
22/11/2020 13:10 12.3 50 434.2 600 0.0 1.9 6.9 122
22/11/2020 13:20 12.0 51 431.9 600 0.0 1.6 5.7 151
22/11/2020 13:30 12.1 51 406.0 600 0.0 1.1 4.1 149
22/11/2020 13:40 11.9 52 406.9 600 0.0 1.5 5.3 136
22/11/2020 13:50 12.1 51 385.7 600 0.0 1.4 5.0 146
22/11/2020 14:00 11.9 52 361.9 600 0.0 1.3 4.7 144
22/11/2020 14:10 12.2 51 346.9 600 0.0 1.3 4.8 140
22/11/2020 14:20 11.8 53 310.3 600 0.0 1.6 5.6 136
22/11/2020 14:30 11.7 53 291.1 600 0.0 1.5 5.4 134
22/11/2020 14:40 11.2 55 279.1 600 0.0 1.6 5.8 125
22/11/2020 14:50 11.4 55 256.3 600 0.0 1.6 5.8 121
22/11/2020 15:00 11.2 56 227.8 600 0.0 1.2 4.2 139
22/11/2020 15:10 11.4 55 208.2 600 0.0 0.9 3.1 177
22/11/2020 15:20 11.4 55 186.0 600 0.0 0.6 2.2 175
22/11/2020 15:30 11.5 55 162.6 600 0.0 0.6 2.2 187
22/11/2020 15:40 12.0 52 129.2 600 0.0 0.6 2.1 198
22/11/2020 15:50 11.0 54 76.2 304 0.0 0.9 3.3 211
22/11/2020 16:00 10.1 57 27.2 0 0.0 0.5 1.8 220
22/11/2020 16:10 9.8 60 22.4 0 0.0 0.0 0.0 0
22/11/2020 16:20 9.1 62 17.8 0 0.0 0.0 0.0 0
22/11/2020 16:30 8.7 63 1.3 0 0.0 0.0 0.0 240
22/11/2020 16:40 8.5 64 0.0 0 0.0 0.4 1.4 259
22/11/2020 16:50 8.2 67 0.0 0 0.0 0.8 2.8 308
22/11/2020 17:00 7.5 70 0.0 0 0.0 1.2 4.3 320
22/11/2020 17:10 6.7 72 0.0 0 0.0 0.7 2.5 303
22/11/2020 17:20 7.2 70 0.0 0 0.0 0.9 3.2 302
22/11/2020 17:30 7.9 67 0.0 0 0.0 2.4 8.6 314
22/11/2020 17:40 8.7 62 0.0 0 0.0 2.7 9.6 316
22/11/2020 17:50 8.9 60 0.0 0 0.0 2.1 7.4 300
22/11/2020 18:00 8.6 63 0.0 0 0.0 2.2 8.0 283
22/11/2020 18:10 8.8 62 0.0 0 0.0 2.5 9.1 296
22/11/2020 18:20 8.9 60 0.0 0 0.0 2.4 8.7 303
22/11/2020 18:30 8.9 60 0.0 0 0.0 2.3 8.2 305
22/11/2020 18:40 8.8 59 0.0 0 0.0 2.1 7.6 309
22/11/2020 18:50 9.1 57 0.0 0 0.0 1.9 7.0 306
22/11/2020 19:00 9.1 55 0.0 0 0.0 2.1 7.6 301
22/11/2020 19:10 9.0 55 0.0 0 0.0 1.9 6.8 301
22/11/2020 19:20 8.5 57 0.0 0 0.0 1.8 6.6 302
22/11/2020 19:30 8.7 57 0.0 0 0.0 2.2 8.1 303
22/11/2020 19:40 8.3 57 0.0 0 0.0 1.7 6.1 292
22/11/2020 19:50 7.8 59 0.0 0 0.0 1.8 6.4 300
22/11/2020 20:00 6.9 62 0.0 0 0.0 1.8 6.3 300
22/11/2020 20:10 6.3 64 0.0 0 0.0 1.8 6.3 306
22/11/2020 20:20 6.2 64 0.0 0 0.0 1.5 5.3 292
22/11/2020 20:30 6.5 62 0.0 0 0.0 1.0 3.7 296
22/11/2020 20:40 6.1 65 0.0 0 0.0 0.9 3.2 305
22/11/2020 20:50 5.5 68 0.0 0 0.0 2.1 7.5 323
22/11/2020 21:00 5.9 67 0.0 0 0.0 2.9 10.3 317
22/11/2020 21:10 7.3 62 0.0 0 0.0 1.4 4.9 293
22/11/2020 21:20 7.4 62 0.0 0 0.0 1.1 3.8 279
22/11/2020 21:30 7.5 62 0.0 0 0.0 1.5 5.3 297
22/11/2020 21:40 7.8 61 0.0 0 0.0 1.7 6.2 305
22/11/2020 21:50 8.0 60 0.0 0 0.0 2.0 7.0 296
22/11/2020 22:00 7.7 59 0.0 0 0.0 2.4 8.6 297
22/11/2020 22:10 7.7 58 0.0 0 0.0 2.3 8.1 282
22/11/2020 22:20 7.3 60 0.0 0 0.0 2.0 7.1 284
22/11/2020 22:30 7.2 59 0.0 0 0.0 2.2 8.1 284
22/11/2020 22:40 7.5 57 0.0 0 0.0 2.4 8.6 294
22/11/2020 22:50 7.1 59 0.0 0 0.0 2.4 8.5 315
22/11/2020 23:00 6.4 62 0.0 0 0.0 2.2 8.1 316
22/11/2020 23:10 7.0 61 0.0 0 0.0 1.9 6.9 312
22/11/2020 23:20 6.8 62 0.0 0 0.0 2.0 7.2 315
22/11/2020 23:30 6.4 62 0.0 0 0.0 1.9 6.9 315
22/11/2020 23:40 6.4 63 0.0 0 0.0 2.5 9.1 313
22/11/2020 23:50 6.7 61 0.0 0 0.0 3.2 11.6 309
Anterior Página 1 de 1 Siguiente

NOTA: Tipo de datos según el color:
   - Valores diarios o 10 minutos correctos
   - Valores diarios calculados a partir de un número de datos 10 minutos menor que 144 y mayor que 120, o de un número de datos semihorarios menor que 48 y mayor que 40 (caso de las estaciones de INTIA Y Ministerio)
   - Valores diez minutos estimados


Contacto        Enlaces        Aviso legal